createdAt,value
2023-03-22T00:01:15.000Z,277.27
2023-03-22T00:03:21.000Z,277.27
2023-03-22T00:04:48.000Z,277.34
2023-03-22T00:06:54.000Z,277.34
2023-03-22T00:08:21.000Z,277.46
2023-03-22T00:10:27.000Z,277.4
2023-03-22T00:11:54.000Z,277.27
2023-03-22T00:14:00.000Z,277.27
2023-03-22T00:15:26.000Z,277.21
2023-03-22T00:17:33.000Z,277.34
2023-03-22T00:18:59.000Z,277.34
2023-03-22T00:21:05.000Z,277.21
2023-03-22T00:23:57.000Z,277.27
2023-03-22T00:25:23.000Z,277.34
2023-03-22T00:27:29.000Z,277.34
2023-03-22T00:28:56.000Z,277.34
2023-03-22T00:31:02.000Z,277.4
2023-03-22T00:32:29.000Z,277.34
2023-03-22T00:34:35.000Z,277.34
2023-03-22T00:36:01.000Z,277.34
2023-03-22T00:38:07.000Z,277.46
2023-03-22T00:39:34.000Z,277.46
2023-03-22T00:41:40.000Z,277.46
2023-03-22T00:43:07.000Z,277.52
2023-03-22T00:45:13.000Z,277.52
2023-03-22T00:46:39.000Z,277.65
2023-03-22T00:48:45.000Z,277.84
2023-03-22T00:50:12.000Z,278.02
2023-03-22T00:52:18.000Z,278.27
2023-03-22T00:53:45.000Z,278.34
2023-03-22T00:55:51.000Z,278.52
2023-03-22T00:57:17.000Z,278.77
2023-03-22T00:59:24.000Z,278.77
2023-03-22T01:02:14.000Z,278.71
2023-03-22T01:03:41.000Z,278.71
2023-03-22T01:05:47.000Z,278.84
2023-03-22T01:07:14.000Z,278.96
2023-03-22T01:09:20.000Z,278.9
2023-03-22T01:10:47.000Z,278.9
2023-03-22T01:12:53.000Z,278.71
2023-03-22T01:14:19.000Z,278.59
2023-03-22T01:16:26.000Z,278.59
2023-03-22T01:17:52.000Z,278.65
2023-03-22T01:19:58.000Z,278.46
2023-03-22T01:21:25.000Z,278.59
2023-03-22T01:23:31.000Z,278.71
2023-03-22T01:24:58.000Z,278.71
2023-03-22T01:27:04.000Z,279.09
2023-03-22T01:28:30.000Z,279.02
2023-03-22T01:30:37.000Z,279.02
2023-03-22T01:32:04.000Z,279.02
2023-03-22T01:34:10.000Z,279.15
2023-03-22T01:35:36.000Z,279.15
2023-03-22T01:37:42.000Z,279.09
2023-03-22T01:40:34.000Z,279.27
2023-03-22T01:42:00.000Z,279.34
2023-03-22T01:44:06.000Z,279.4
2023-03-22T01:45:33.000Z,279.52
2023-03-22T01:47:39.000Z,279.52
2023-03-22T01:49:06.000Z,279.46
2023-03-22T01:51:12.000Z,279.46
2023-03-22T01:52:38.000Z,279.59
2023-03-22T01:54:44.000Z,279.52
2023-03-22T01:56:11.000Z,279.59
2023-03-22T01:58:17.000Z,279.52
2023-03-22T01:59:44.000Z,279.59
2023-03-22T02:01:50.000Z,279.59
2023-03-22T02:03:16.000Z,279.52
2023-03-22T02:05:22.000Z,279.52
2023-03-22T02:06:49.000Z,279.52
2023-03-22T02:08:55.000Z,279.46
2023-03-22T02:10:22.000Z,279.46
2023-03-22T02:12:28.000Z,279.46
2023-03-22T02:13:54.000Z,279.4
2023-03-22T02:16:00.000Z,279.4
2023-03-22T02:18:52.000Z,279.4
2023-03-22T02:20:18.000Z,279.4
2023-03-22T02:22:24.000Z,279.27
2023-03-22T02:23:51.000Z,279.21
2023-03-22T02:25:57.000Z,279.02
2023-03-22T02:27:24.000Z,278.9
2023-03-22T02:29:30.000Z,278.84
2023-03-22T02:30:56.000Z,278.77
2023-03-22T02:33:03.000Z,278.84
2023-03-22T02:34:29.000Z,278.77
2023-03-22T02:36:35.000Z,278.77
2023-03-22T02:38:02.000Z,278.77
2023-03-22T02:40:08.000Z,278.65
2023-03-22T02:41:35.000Z,278.65
2023-03-22T02:43:41.000Z,278.59
2023-03-22T02:45:07.000Z,278.52
2023-03-22T02:47:13.000Z,278.46
2023-03-22T02:48:40.000Z,278.46
2023-03-22T02:50:46.000Z,278.46
2023-03-22T02:52:13.000Z,278.4
2023-03-22T02:54:19.000Z,278.34
2023-03-22T02:57:10.000Z,278.34
2023-03-22T02:58:37.000Z,278.34
2023-03-22T03:00:43.000Z,278.4
2023-03-22T03:02:09.000Z,278.4
2023-03-22T03:04:16.000Z,278.4
2023-03-22T03:05:42.000Z,278.4
2023-03-22T03:07:48.000Z,278.34
2023-03-22T03:09:15.000Z,278.34
2023-03-22T03:11:21.000Z,278.34
2023-03-22T03:12:48.000Z,278.34
2023-03-22T03:14:54.000Z,278.34
2023-03-22T03:16:20.000Z,278.4
2023-03-22T03:18:27.000Z,278.4
2023-03-22T03:19:53.000Z,278.52
2023-03-22T03:21:59.000Z,278.77
2023-03-22T03:23:26.000Z,278.77
2023-03-22T03:25:32.000Z,278.77
2023-03-22T03:26:58.000Z,278.9
2023-03-22T03:29:04.000Z,278.9
2023-03-22T03:30:31.000Z,278.9
2023-03-22T03:32:37.000Z,279.02
2023-03-22T03:35:28.000Z,279.21
2023-03-22T03:36:55.000Z,279.27
2023-03-22T03:39:01.000Z,279.34
2023-03-22T03:40:28.000Z,279.46
2023-03-22T03:42:34.000Z,279.52
2023-03-22T03:44:00.000Z,279.46
2023-03-22T03:46:06.000Z,279.46
2023-03-22T03:47:33.000Z,279.4
2023-03-22T03:49:39.000Z,279.34
2023-03-22T03:51:05.000Z,279.27
2023-03-22T03:53:12.000Z,279.27
2023-03-22T03:54:38.000Z,279.34
2023-03-22T03:56:44.000Z,279.4
2023-03-22T03:58:11.000Z,279.34
2023-03-22T04:00:17.000Z,279.27
2023-03-22T04:01:44.000Z,279.15
2023-03-22T04:03:50.000Z,279.21
2023-03-22T04:05:16.000Z,279.15
2023-03-22T04:07:23.000Z,279.09
2023-03-22T04:08:49.000Z,279.34
2023-03-22T04:10:55.000Z,279.34
2023-03-22T04:13:46.000Z,279.34
2023-03-22T04:15:13.000Z,279.34
2023-03-22T04:17:19.000Z,279.27
2023-03-22T04:18:45.000Z,279.27
2023-03-22T04:20:51.000Z,279.15
2023-03-22T04:22:18.000Z,279.21
2023-03-22T04:24:24.000Z,279.09
2023-03-22T04:25:50.000Z,279.09
2023-03-22T04:27:56.000Z,279.09
2023-03-22T04:29:23.000Z,279.02
2023-03-22T04:31:29.000Z,279.02
2023-03-22T04:32:56.000Z,278.9
2023-03-22T04:35:02.000Z,278.84
2023-03-22T04:36:29.000Z,278.77
2023-03-22T04:38:35.000Z,278.84
2023-03-22T04:40:01.000Z,278.84
2023-03-22T04:42:07.000Z,278.84
2023-03-22T04:43:34.000Z,278.96
2023-03-22T04:45:40.000Z,278.96
2023-03-22T04:47:07.000Z,278.96
2023-03-22T04:49:13.000Z,279.09
2023-03-22T04:52:04.000Z,278.9
2023-03-22T04:53:30.000Z,278.84
2023-03-22T04:55:36.000Z,278.71
2023-03-22T04:57:03.000Z,278.71
2023-03-22T04:59:09.000Z,278.71
2023-03-22T05:00:35.000Z,278.71
2023-03-22T05:02:42.000Z,278.59
2023-03-22T05:04:09.000Z,278.59
2023-03-22T05:06:15.000Z,278.71
2023-03-22T05:07:41.000Z,278.71
2023-03-22T05:09:48.000Z,278.59
2023-03-22T05:11:14.000Z,278.52
2023-03-22T05:13:20.000Z,278.46
2023-03-22T05:14:47.000Z,278.4
2023-03-22T05:16:53.000Z,278.34
2023-03-22T05:18:20.000Z,278.27
2023-03-22T05:20:26.000Z,278.21
2023-03-22T05:21:52.000Z,278.21
2023-03-22T05:23:58.000Z,278.15
2023-03-22T05:25:25.000Z,278.09
2023-03-22T05:27:31.000Z,278.09
2023-03-22T05:30:22.000Z,277.96
2023-03-22T05:31:49.000Z,277.96
2023-03-22T05:33:55.000Z,277.96
2023-03-22T05:35:21.000Z,278.02
2023-03-22T05:37:27.000Z,277.96
2023-03-22T05:38:54.000Z,277.96
2023-03-22T05:41:00.000Z,277.96
2023-03-22T05:42:27.000Z,277.96
2023-03-22T05:44:33.000Z,277.84
2023-03-22T05:45:59.000Z,277.84
2023-03-22T05:48:05.000Z,277.71
2023-03-22T05:49:32.000Z,277.71
2023-03-22T05:51:38.000Z,277.65
2023-03-22T05:53:05.000Z,277.71
2023-03-22T05:55:11.000Z,277.77
2023-03-22T05:56:37.000Z,277.77
2023-03-22T05:58:44.000Z,277.77
2023-03-22T06:00:10.000Z,277.77
2023-03-22T06:02:16.000Z,277.9
2023-03-22T06:03:43.000Z,277.9
2023-03-22T06:05:49.000Z,277.96
2023-03-22T06:08:41.000Z,278.02
2023-03-22T06:10:07.000Z,278.02
2023-03-22T06:12:13.000Z,278.02
2023-03-22T06:13:40.000Z,278.09
2023-03-22T06:15:46.000Z,278.09
2023-03-22T06:17:12.000Z,278.02
2023-03-22T06:19:18.000Z,278.09
2023-03-22T06:20:45.000Z,278.15
2023-03-22T06:22:51.000Z,278.27
2023-03-22T06:24:18.000Z,278.21
2023-03-22T06:26:24.000Z,278.34
2023-03-22T06:27:50.000Z,278.4
2023-03-22T06:29:57.000Z,278.46
2023-03-22T06:31:23.000Z,278.59
2023-03-22T06:33:29.000Z,278.52
2023-03-22T06:34:56.000Z,278.59
2023-03-22T06:37:02.000Z,278.65
2023-03-22T06:38:28.000Z,278.71
2023-03-22T06:40:34.000Z,278.84
2023-03-22T06:42:01.000Z,278.9
2023-03-22T06:44:07.000Z,278.9
2023-03-22T06:46:58.000Z,279.09
2023-03-22T06:48:25.000Z,279.09
2023-03-22T06:50:31.000Z,279.21
2023-03-22T06:51:58.000Z,279.27
2023-03-22T06:54:04.000Z,279.27
2023-03-22T06:55:30.000Z,279.46
2023-03-22T06:57:36.000Z,279.52
2023-03-22T06:59:03.000Z,279.59
2023-03-22T07:01:09.000Z,279.65
2023-03-22T07:02:36.000Z,279.71
2023-03-22T07:04:42.000Z,279.84
2023-03-22T07:06:08.000Z,279.9
2023-03-22T07:08:14.000Z,280.02
2023-03-22T07:09:41.000Z,280.02
2023-03-22T07:11:47.000Z,280.02
2023-03-22T07:13:13.000Z,280.15
2023-03-22T07:15:20.000Z,280.09
2023-03-22T07:16:46.000Z,280.21
2023-03-22T07:18:52.000Z,280.34
2023-03-22T07:20:19.000Z,280.46
2023-03-22T07:22:25.000Z,280.46
2023-03-22T07:25:16.000Z,280.59
2023-03-22T07:26:43.000Z,280.71
2023-03-22T07:28:49.000Z,280.84
2023-03-22T07:30:15.000Z,280.96
2023-03-22T07:32:22.000Z,281.27
2023-03-22T07:33:48.000Z,281.4
2023-03-22T07:35:55.000Z,281.46
2023-03-22T07:37:21.000Z,281.4
2023-03-22T07:39:27.000Z,281.59
2023-03-22T07:40:54.000Z,281.59
2023-03-22T07:43:00.000Z,281.59
2023-03-22T07:44:27.000Z,281.65
2023-03-22T07:46:33.000Z,281.59
2023-03-22T07:47:59.000Z,281.77
2023-03-22T07:50:06.000Z,281.71
2023-03-22T07:51:32.000Z,281.77
2023-03-22T07:53:38.000Z,281.77
2023-03-22T07:55:05.000Z,281.84
2023-03-22T07:57:11.000Z,281.96
2023-03-22T07:58:37.000Z,282.09
2023-03-22T08:00:44.000Z,282.15
2023-03-22T08:03:35.000Z,282.27
2023-03-22T08:05:01.000Z,282.34
2023-03-22T08:07:08.000Z,282.4
2023-03-22T08:08:34.000Z,282.52
2023-03-22T08:10:40.000Z,282.65
2023-03-22T08:12:07.000Z,282.65
2023-03-22T08:14:13.000Z,282.65
2023-03-22T08:15:42.000Z,282.65
2023-03-22T08:17:49.000Z,282.65
2023-03-22T08:19:15.000Z,282.65
2023-03-22T08:21:21.000Z,282.71
2023-03-22T08:22:48.000Z,282.71
2023-03-22T08:24:54.000Z,282.77
2023-03-22T08:26:20.000Z,282.9
2023-03-22T08:28:26.000Z,282.9
2023-03-22T08:29:53.000Z,282.96
2023-03-22T08:31:59.000Z,282.9
2023-03-22T08:33:26.000Z,282.96
2023-03-22T08:35:32.000Z,282.96
2023-03-22T08:36:58.000Z,283.02
2023-03-22T08:39:05.000Z,283.09
2023-03-22T08:41:56.000Z,283.27
2023-03-22T08:43:22.000Z,283.4
2023-03-22T08:45:28.000Z,283.59
2023-03-22T08:46:55.000Z,283.77
2023-03-22T08:49:01.000Z,283.71
2023-03-22T08:50:28.000Z,283.77
2023-03-22T08:52:34.000Z,283.84
2023-03-22T08:54:00.000Z,283.9
2023-03-22T08:56:06.000Z,283.77
2023-03-22T08:57:33.000Z,283.84
2023-03-22T08:59:42.000Z,283.77
2023-03-22T09:01:09.000Z,283.71
2023-03-22T09:03:15.000Z,283.71
2023-03-22T09:04:41.000Z,283.71
2023-03-22T09:06:48.000Z,283.77
2023-03-22T09:08:14.000Z,283.77
2023-03-22T09:10:23.000Z,283.84
2023-03-22T09:11:50.000Z,283.9
2023-03-22T09:13:56.000Z,284.02
2023-03-22T09:15:22.000Z,284.15
2023-03-22T09:17:29.000Z,284.34
2023-03-22T09:20:20.000Z,284.4
2023-03-22T09:21:46.000Z,284.59
2023-03-22T09:23:52.000Z,284.77
2023-03-22T09:25:19.000Z,284.9
2023-03-22T09:27:25.000Z,285.02
2023-03-22T09:28:52.000Z,284.9
2023-03-22T09:30:58.000Z,284.77
2023-03-22T09:32:24.000Z,284.59
2023-03-22T09:34:30.000Z,284.4
2023-03-22T09:35:57.000Z,284.34
2023-03-22T09:38:03.000Z,284.21
2023-03-22T09:39:30.000Z,284.15
2023-03-22T09:41:36.000Z,284.15
2023-03-22T09:43:02.000Z,284.15
2023-03-22T09:45:08.000Z,284.15
2023-03-22T09:46:35.000Z,284.27
2023-03-22T09:48:41.000Z,284.46
2023-03-22T09:50:08.000Z,284.59
2023-03-22T09:52:14.000Z,284.65
2023-03-22T09:53:40.000Z,284.52
2023-03-22T09:55:46.000Z,284.65
2023-03-22T09:58:37.000Z,284.9
2023-03-22T10:00:04.000Z,284.96
2023-03-22T10:02:10.000Z,285.02
2023-03-22T10:03:37.000Z,285.09
2023-03-22T10:05:43.000Z,284.9
2023-03-22T10:07:10.000Z,284.77
2023-03-22T10:09:16.000Z,284.77
2023-03-22T10:10:42.000Z,284.71
2023-03-22T10:12:48.000Z,284.65
2023-03-22T10:14:15.000Z,284.84
2023-03-22T10:16:21.000Z,284.77
2023-03-22T10:17:48.000Z,284.84
2023-03-22T10:19:54.000Z,285.02
2023-03-22T10:21:20.000Z,285.15
2023-03-22T10:23:26.000Z,285.09
2023-03-22T10:24:53.000Z,285.09
2023-03-22T10:26:59.000Z,285.34
2023-03-22T10:28:25.000Z,285.34
2023-03-22T10:30:32.000Z,285.34
2023-03-22T10:31:58.000Z,285.46
2023-03-22T10:34:04.000Z,285.52
2023-03-22T10:36:55.000Z,285.46
2023-03-22T10:38:22.000Z,285.34
2023-03-22T10:40:28.000Z,285.15
2023-03-22T10:41:55.000Z,285.09
2023-03-22T10:44:02.000Z,285.09
2023-03-22T10:45:28.000Z,285.09
2023-03-22T10:47:35.000Z,285.21
2023-03-22T10:49:01.000Z,285.21
2023-03-22T10:51:07.000Z,285.21
2023-03-22T10:52:34.000Z,285.27
2023-03-22T10:54:40.000Z,285.46
2023-03-22T10:56:06.000Z,285.52
2023-03-22T10:58:13.000Z,285.65
2023-03-22T10:59:39.000Z,285.9
2023-03-22T11:01:45.000Z,286.15
2023-03-22T11:03:12.000Z,285.9
2023-03-22T11:05:19.000Z,285.9
2023-03-22T11:06:45.000Z,285.96
2023-03-22T11:08:51.000Z,285.9
2023-03-22T11:10:18.000Z,285.71
2023-03-22T11:12:24.000Z,285.77
2023-03-22T11:15:15.000Z,285.71
2023-03-22T11:16:41.000Z,285.59
2023-03-22T11:18:48.000Z,285.59
2023-03-22T11:20:14.000Z,285.59
2023-03-22T11:22:20.000Z,285.65
2023-03-22T11:23:47.000Z,285.65
2023-03-22T11:25:53.000Z,285.59
2023-03-22T11:27:20.000Z,285.65
2023-03-22T11:29:26.000Z,285.65
2023-03-22T11:30:52.000Z,285.77
2023-03-22T11:32:58.000Z,286.02
2023-03-22T11:34:25.000Z,285.96
2023-03-22T11:36:31.000Z,286.02
2023-03-22T11:37:58.000Z,285.9
2023-03-22T11:40:04.000Z,285.96
2023-03-22T11:41:31.000Z,285.96
2023-03-22T11:43:37.000Z,286.27
2023-03-22T11:45:03.000Z,286.21
2023-03-22T11:47:09.000Z,286.09
2023-03-22T11:48:36.000Z,286.09
2023-03-22T11:50:42.000Z,286.02
2023-03-22T11:53:33.000Z,286.15
2023-03-22T11:55:00.000Z,286.21
2023-03-22T11:57:06.000Z,286.15
2023-03-22T11:58:33.000Z,286.15
2023-03-22T12:00:39.000Z,286.21
2023-03-22T12:02:06.000Z,286.27
2023-03-22T12:04:12.000Z,286.21
2023-03-22T12:05:38.000Z,286.09
2023-03-22T12:07:45.000Z,286.02
2023-03-22T12:09:11.000Z,286.02
2023-03-22T12:11:17.000Z,285.96
2023-03-22T12:12:44.000Z,286.09
2023-03-22T12:14:50.000Z,286.27
2023-03-22T12:16:17.000Z,286.27
2023-03-22T12:18:23.000Z,286.34
2023-03-22T12:19:49.000Z,286.27
2023-03-22T12:21:56.000Z,286.34
2023-03-22T12:23:22.000Z,286.4
2023-03-22T12:25:28.000Z,286.21
2023-03-22T12:26:55.000Z,286.27
2023-03-22T12:29:01.000Z,286.4
2023-03-22T12:31:52.000Z,286.52
2023-03-22T12:33:19.000Z,286.52
2023-03-22T12:35:25.000Z,286.71
2023-03-22T12:36:52.000Z,286.71
2023-03-22T12:38:58.000Z,286.71
2023-03-22T12:40:25.000Z,286.71
2023-03-22T12:42:31.000Z,286.84
2023-03-22T12:44:02.000Z,286.9
2023-03-22T12:46:08.000Z,286.9
2023-03-22T12:47:34.000Z,286.9
2023-03-22T12:49:40.000Z,286.84
2023-03-22T12:51:07.000Z,286.9
2023-03-22T12:53:13.000Z,286.9
2023-03-22T12:54:39.000Z,286.9
2023-03-22T12:56:46.000Z,286.9
2023-03-22T12:58:12.000Z,286.84
2023-03-22T13:00:19.000Z,286.84
2023-03-22T13:01:45.000Z,286.9
2023-03-22T13:03:51.000Z,286.9
2023-03-22T13:05:18.000Z,286.96
2023-03-22T13:07:24.000Z,286.96
2023-03-22T13:10:15.000Z,287.02
2023-03-22T13:11:42.000Z,286.96
2023-03-22T13:13:48.000Z,287.02
2023-03-22T13:15:14.000Z,287.09
2023-03-22T13:17:20.000Z,287.09
2023-03-22T13:18:47.000Z,287.15
2023-03-22T13:20:53.000Z,287.27
2023-03-22T13:22:20.000Z,287.34
2023-03-22T13:24:26.000Z,287.4
2023-03-22T13:25:52.000Z,287.46
2023-03-22T13:27:59.000Z,287.52
2023-03-22T13:29:25.000Z,287.65
2023-03-22T13:31:31.000Z,287.71
2023-03-22T13:32:58.000Z,287.71
2023-03-22T13:35:04.000Z,287.71
2023-03-22T13:36:30.000Z,287.59
2023-03-22T13:38:37.000Z,287.65
2023-03-22T13:40:06.000Z,287.65
2023-03-22T13:42:12.000Z,287.59
2023-03-22T13:43:39.000Z,287.46
2023-03-22T13:45:45.000Z,287.4
2023-03-22T13:48:36.000Z,287.34
2023-03-22T13:50:03.000Z,287.4
2023-03-22T13:52:11.000Z,287.4
2023-03-22T13:53:38.000Z,287.4
2023-03-22T13:55:44.000Z,287.4
2023-03-22T13:57:10.000Z,287.46
2023-03-22T13:59:17.000Z,287.46
2023-03-22T14:00:43.000Z,287.4
2023-03-22T14:02:49.000Z,287.4
2023-03-22T14:04:16.000Z,287.46
2023-03-22T14:06:22.000Z,287.4
2023-03-22T14:07:48.000Z,287.46
2023-03-22T14:09:54.000Z,287.4
2023-03-22T14:11:21.000Z,287.46
2023-03-22T14:13:27.000Z,287.4
2023-03-22T14:14:54.000Z,287.46
2023-03-22T14:17:00.000Z,287.46
2023-03-22T14:18:26.000Z,287.46
2023-03-22T14:20:33.000Z,287.4
2023-03-22T14:53:08.000Z,287.52
2023-03-22T14:55:15.000Z,287.52
2023-03-22T14:56:41.000Z,287.52
2023-03-22T14:58:47.000Z,287.52
2023-03-22T15:00:14.000Z,287.52
2023-03-22T15:02:20.000Z,287.59
2023-03-22T15:05:12.000Z,287.52
2023-03-22T15:06:38.000Z,287.59
2023-03-22T15:08:45.000Z,287.52
2023-03-22T15:10:11.000Z,287.59
2023-03-22T15:12:17.000Z,287.52
2023-03-22T15:13:44.000Z,287.59
2023-03-22T15:15:50.000Z,287.59
2023-03-22T15:17:16.000Z,287.59
2023-03-22T15:19:22.000Z,287.52
2023-03-22T15:20:49.000Z,287.52
2023-03-22T15:22:55.000Z,287.46
2023-03-22T15:24:21.000Z,287.46
2023-03-22T15:26:28.000Z,287.46
2023-03-22T15:27:54.000Z,287.4
2023-03-22T15:30:00.000Z,287.4
2023-03-22T15:31:27.000Z,287.4
2023-03-22T15:33:33.000Z,287.4
2023-03-22T15:34:59.000Z,287.4
2023-03-22T15:37:05.000Z,287.34
2023-03-22T15:38:32.000Z,287.34
2023-03-22T15:40:50.000Z,287.27
2023-03-22T15:43:41.000Z,287.27
2023-03-22T15:45:08.000Z,287.27
2023-03-22T15:47:14.000Z,287.21
2023-03-22T15:48:41.000Z,287.21
2023-03-22T15:50:47.000Z,287.15
2023-03-22T15:52:13.000Z,287.15
2023-03-22T15:54:19.000Z,287.09
2023-03-22T15:55:46.000Z,287.09
2023-03-22T15:57:52.000Z,287.09
2023-03-22T15:59:19.000Z,287.02
2023-03-22T16:01:25.000Z,287.02
2023-03-22T16:02:51.000Z,287.02
2023-03-22T16:04:58.000Z,287.02
2023-03-22T16:06:24.000Z,286.96
2023-03-22T16:08:30.000Z,286.9
2023-03-22T16:09:57.000Z,286.9
2023-03-22T16:12:03.000Z,286.84
2023-03-22T16:13:29.000Z,286.84
2023-03-22T16:15:35.000Z,286.84
2023-03-22T16:17:02.000Z,286.84
2023-03-22T16:19:08.000Z,286.77
2023-03-22T16:21:59.000Z,286.77
2023-03-22T16:23:26.000Z,286.71
2023-03-22T16:25:32.000Z,286.77
2023-03-22T16:26:59.000Z,286.77
2023-03-22T16:29:05.000Z,286.71
2023-03-22T16:30:31.000Z,286.71
2023-03-22T16:32:38.000Z,286.71
2023-03-22T16:34:04.000Z,286.71
2023-03-22T16:36:10.000Z,286.65
2023-03-22T16:37:39.000Z,286.65
2023-03-22T16:39:45.000Z,286.59
2023-03-22T16:41:11.000Z,286.52
2023-03-22T16:43:17.000Z,286.52
2023-03-22T16:44:44.000Z,286.52
2023-03-22T16:47:00.000Z,286.52
2023-03-22T16:48:26.000Z,286.52
2023-03-22T16:50:32.000Z,286.52
2023-03-22T16:51:59.000Z,286.52
2023-03-22T16:54:05.000Z,286.52
2023-03-22T16:55:31.000Z,286.52
2023-03-22T16:57:37.000Z,286.46
2023-03-22T17:00:29.000Z,286.4
2023-03-22T17:01:55.000Z,286.4
2023-03-22T17:04:01.000Z,286.34
2023-03-22T17:05:28.000Z,286.34
2023-03-22T17:07:34.000Z,286.34
2023-03-22T17:09:01.000Z,286.34
2023-03-22T17:11:07.000Z,286.34
2023-03-22T17:12:33.000Z,286.27
2023-03-22T17:14:39.000Z,286.27
2023-03-22T17:16:06.000Z,286.27
2023-03-22T17:18:12.000Z,286.21
2023-03-22T17:19:39.000Z,286.27
2023-03-22T17:21:45.000Z,286.21
2023-03-22T17:23:11.000Z,286.15
2023-03-22T17:25:17.000Z,286.15
2023-03-22T17:26:44.000Z,286.15
2023-03-22T17:28:50.000Z,286.09
2023-03-22T17:30:16.000Z,286.02
2023-03-22T17:32:23.000Z,286.02
2023-03-22T17:34:15.000Z,285.96
2023-03-22T17:36:21.000Z,286.02
2023-03-22T17:39:13.000Z,286.02
2023-03-22T17:41:12.000Z,285.96
2023-03-22T17:43:18.000Z,285.96
2023-03-22T17:44:45.000Z,285.96
2023-03-22T17:48:23.000Z,285.96
2023-03-22T17:50:29.000Z,285.9
2023-03-22T17:51:55.000Z,285.9
2023-03-22T17:54:02.000Z,285.84
2023-03-22T17:56:31.000Z,285.9
2023-03-22T17:59:19.000Z,285.9
2023-03-22T18:00:45.000Z,285.84
2023-03-22T18:02:51.000Z,285.84
2023-03-22T18:04:18.000Z,285.84
2023-03-22T18:06:24.000Z,285.84
2023-03-22T18:07:51.000Z,285.77
2023-03-22T18:10:30.000Z,285.71
2023-03-22T18:11:56.000Z,285.71
2023-03-22T18:14:02.000Z,285.77
2023-03-22T18:15:49.000Z,285.77
2023-03-22T18:17:55.000Z,285.84
2023-03-22T18:20:46.000Z,285.77
2023-03-22T18:22:22.000Z,285.71
2023-03-22T18:24:28.000Z,285.77
2023-03-22T18:25:54.000Z,285.77
2023-03-22T18:28:02.000Z,285.84
2023-03-22T18:29:28.000Z,285.77
2023-03-22T18:31:34.000Z,285.77
2023-03-22T18:33:01.000Z,285.77
2023-03-22T18:35:10.000Z,285.71
2023-03-22T18:36:36.000Z,285.77
2023-03-22T18:38:42.000Z,285.71
2023-03-22T18:40:49.000Z,285.71
2023-03-22T18:43:38.000Z,285.71
2023-03-22T18:45:05.000Z,285.71
2023-03-22T18:47:11.000Z,285.71
2023-03-22T18:48:38.000Z,285.71
2023-03-22T18:50:44.000Z,285.65
2023-03-22T18:52:10.000Z,285.71
2023-03-22T18:54:53.000Z,285.65
2023-03-22T18:56:49.000Z,285.65
2023-03-22T18:58:55.000Z,285.59
2023-03-22T19:03:16.000Z,285.52
2023-03-22T19:05:22.000Z,285.46
2023-03-22T19:06:48.000Z,285.46
2023-03-22T19:08:56.000Z,285.46
2023-03-22T19:10:22.000Z,285.46
2023-03-22T19:12:29.000Z,285.46
2023-03-22T19:13:55.000Z,285.46
2023-03-22T19:17:09.000Z,285.52
2023-03-22T19:18:35.000Z,285.52
2023-03-22T19:20:41.000Z,285.52
2023-03-22T19:22:31.000Z,285.46
2023-03-22T19:24:37.000Z,285.4
2023-03-22T19:26:04.000Z,285.46
2023-03-22T19:28:10.000Z,285.34
2023-03-22T19:29:36.000Z,285.4
2023-03-22T19:31:43.000Z,285.34
2023-03-22T19:33:09.000Z,285.34
2023-03-22T19:35:49.000Z,285.27
2023-03-22T19:37:16.000Z,285.27
2023-03-22T19:39:22.000Z,285.27
2023-03-22T19:43:39.000Z,285.21
2023-03-22T19:45:46.000Z,285.21
2023-03-22T19:47:12.000Z,285.21
2023-03-22T19:49:18.000Z,285.21
2023-03-22T19:50:45.000Z,285.21
2023-03-22T19:56:28.000Z,285.21
2023-03-22T19:57:55.000Z,285.21
2023-03-22T20:00:01.000Z,285.21
2023-03-22T20:02:09.000Z,285.15
2023-03-22T20:04:15.000Z,285.27
2023-03-22T20:05:42.000Z,285.27
2023-03-22T20:07:54.000Z,285.4
2023-03-22T20:09:21.000Z,285.4
2023-03-22T20:11:27.000Z,285.34
2023-03-22T20:13:07.000Z,285.4
2023-03-22T20:15:14.000Z,285.4
2023-03-22T20:16:40.000Z,285.46
2023-03-22T20:18:46.000Z,285.59
2023-03-22T20:21:38.000Z,285.46
2023-03-22T20:23:04.000Z,285.46
2023-03-22T20:25:10.000Z,285.46
2023-03-22T20:26:37.000Z,285.46
2023-03-22T20:28:43.000Z,285.59
2023-03-22T20:30:09.000Z,285.52
2023-03-22T20:32:15.000Z,285.46
2023-03-22T20:33:42.000Z,285.46
2023-03-22T20:35:48.000Z,285.59
2023-03-22T20:37:15.000Z,285.65
2023-03-22T20:39:21.000Z,285.59
2023-03-22T20:40:47.000Z,285.59
2023-03-22T20:42:53.000Z,285.52
2023-03-22T20:44:20.000Z,285.52
2023-03-22T20:46:26.000Z,285.46
2023-03-22T20:47:53.000Z,285.46
2023-03-22T20:49:59.000Z,285.4
2023-03-22T20:51:25.000Z,285.4
2023-03-22T20:53:32.000Z,285.34
2023-03-22T20:54:58.000Z,285.27
2023-03-22T20:57:05.000Z,285.27
2023-03-22T20:59:56.000Z,285.15
2023-03-22T21:01:22.000Z,285.09
2023-03-22T21:03:29.000Z,285.09
2023-03-22T21:04:55.000Z,285.09
2023-03-22T21:07:01.000Z,285.02
2023-03-22T21:08:28.000Z,285.02
2023-03-22T21:10:34.000Z,284.96
2023-03-22T21:16:06.000Z,284.84
2023-03-22T21:18:12.000Z,284.77
2023-03-22T21:19:38.000Z,284.77
2023-03-22T21:21:45.000Z,284.71
2023-03-22T21:23:15.000Z,284.71
2023-03-22T21:25:22.000Z,284.71
2023-03-22T21:26:48.000Z,284.65
2023-03-22T21:28:54.000Z,284.71
2023-03-22T21:30:21.000Z,284.77
2023-03-22T21:32:27.000Z,284.71
2023-03-22T21:33:54.000Z,284.71
2023-03-22T21:36:00.000Z,284.84
2023-03-22T21:38:51.000Z,284.84
2023-03-22T21:40:17.000Z,284.9
2023-03-22T21:42:23.000Z,284.77
2023-03-22T21:43:50.000Z,284.84
2023-03-22T21:45:56.000Z,284.77
2023-03-22T21:47:23.000Z,284.84
2023-03-22T21:49:29.000Z,284.9
2023-03-22T21:50:55.000Z,284.84
2023-03-22T21:53:01.000Z,284.84
2023-03-22T21:54:28.000Z,284.77
2023-03-22T21:56:34.000Z,284.77
2023-03-22T21:58:01.000Z,284.77
2023-03-22T22:00:07.000Z,284.77
2023-03-22T22:01:33.000Z,284.84
2023-03-22T22:03:39.000Z,284.77
2023-03-22T22:05:06.000Z,284.84
2023-03-22T22:07:12.000Z,284.77
2023-03-22T22:08:39.000Z,284.71
2023-03-22T22:10:45.000Z,284.65
2023-03-22T22:12:11.000Z,284.71
2023-03-22T22:14:17.000Z,284.71
2023-03-22T22:17:09.000Z,284.65
2023-03-22T22:18:35.000Z,284.59
2023-03-22T22:20:41.000Z,284.71
2023-03-22T22:22:08.000Z,284.71
2023-03-22T22:24:14.000Z,284.65
2023-03-22T22:25:40.000Z,284.71
2023-03-22T22:27:47.000Z,284.65
2023-03-22T22:29:13.000Z,284.9
2023-03-22T22:31:19.000Z,284.96
2023-03-22T22:32:46.000Z,284.96
2023-03-22T22:34:52.000Z,284.9
2023-03-22T22:36:18.000Z,284.96
2023-03-22T22:38:25.000Z,284.9
2023-03-22T22:39:51.000Z,284.9
2023-03-22T22:41:58.000Z,284.96
2023-03-22T22:43:24.000Z,285.02
2023-03-22T22:45:30.000Z,285.02
2023-03-22T22:46:57.000Z,285.09
2023-03-22T22:49:03.000Z,285.21
2023-03-22T22:50:30.000Z,285.21
2023-03-22T22:52:37.000Z,285.27
2023-03-22T22:55:28.000Z,285.4
2023-03-22T22:56:54.000Z,285.46
2023-03-22T22:59:00.000Z,285.34
2023-03-22T23:00:27.000Z,285.4
2023-03-22T23:02:33.000Z,285.34
2023-03-22T23:04:00.000Z,285.4
2023-03-22T23:06:06.000Z,285.27
2023-03-22T23:07:32.000Z,285.34
2023-03-22T23:09:39.000Z,285.27
2023-03-22T23:11:05.000Z,285.27
2023-03-22T23:13:11.000Z,285.27
2023-03-22T23:14:38.000Z,285.21
2023-03-22T23:16:44.000Z,285.15
2023-03-22T23:18:10.000Z,285.21
2023-03-22T23:20:16.000Z,285.15
2023-03-22T23:21:43.000Z,285.15
2023-03-22T23:23:49.000Z,285.09
2023-03-22T23:25:15.000Z,285.02
2023-03-22T23:27:21.000Z,285.09
2023-03-22T23:28:48.000Z,285.02
2023-03-22T23:30:54.000Z,285.21
2023-03-22T23:33:46.000Z,285.02
2023-03-22T23:35:12.000Z,285.09
2023-03-22T23:37:18.000Z,285.09
2023-03-22T23:38:45.000Z,285.09
2023-03-22T23:40:51.000Z,285.02
2023-03-22T23:42:18.000Z,285.09
2023-03-22T23:44:24.000Z,285.02
2023-03-22T23:45:50.000Z,285.09